createdAt,value
2019-02-28T00:02:28.738Z,4.73
2019-02-28T00:04:59.070Z,4.71
2019-02-28T00:07:29.495Z,4.70
2019-02-28T00:09:59.910Z,4.70
2019-02-28T00:12:30.405Z,4.66
2019-02-28T00:15:00.804Z,4.69
2019-02-28T00:17:31.100Z,4.67
2019-02-28T00:20:01.508Z,4.68
2019-02-28T00:22:31.925Z,4.67
2019-02-28T00:25:04.190Z,4.65
2019-02-28T00:27:34.473Z,4.65
2019-02-28T00:30:06.208Z,4.60
2019-02-28T00:32:37.197Z,4.63
2019-02-28T00:35:13.012Z,4.59
2019-02-28T00:37:39.989Z,4.66
2019-02-28T00:40:10.632Z,4.63
2019-02-28T00:42:41.064Z,4.66
2019-02-28T00:45:12.259Z,4.61
2019-02-28T00:47:42.978Z,4.56
2019-02-28T00:50:13.908Z,4.57
2019-02-28T00:52:44.550Z,4.51
2019-02-28T00:55:15.653Z,4.57
2019-02-28T00:57:46.211Z,4.57
2019-02-28T01:00:17.626Z,4.53
2019-02-28T01:02:52.152Z,4.59
2019-02-28T01:05:20.471Z,4.62
2019-02-28T01:07:50.984Z,4.67
2019-02-28T01:10:21.560Z,4.70
2019-02-28T01:12:54.383Z,4.68
2019-02-28T01:15:24.244Z,4.65
2019-02-28T01:17:57.222Z,4.62
2019-02-28T01:20:26.708Z,4.60
2019-02-28T01:22:58.533Z,4.58
2019-02-28T01:25:29.263Z,4.57
2019-02-28T01:27:59.717Z,4.53
2019-02-28T01:30:30.130Z,4.55
2019-02-28T01:33:00.533Z,4.52
2019-02-28T01:35:30.932Z,4.44
2019-02-28T01:38:01.378Z,4.43
2019-02-28T01:40:31.786Z,4.41
2019-02-28T01:43:02.165Z,4.41
2019-02-28T01:45:32.652Z,4.41
2019-02-28T01:48:03.087Z,4.39
2019-02-28T01:50:33.515Z,4.38
2019-02-28T01:53:03.995Z,4.35
2019-02-28T01:55:34.344Z,4.35
2019-02-28T01:58:04.862Z,4.32
2019-02-28T02:00:35.331Z,4.32
2019-02-28T02:03:05.790Z,4.30
2019-02-28T02:05:36.337Z,4.32
2019-02-28T02:08:07.455Z,4.28
2019-02-28T02:10:37.905Z,4.25
2019-02-28T02:13:08.297Z,4.21
2019-02-28T02:15:38.731Z,4.22
2019-02-28T02:18:10.020Z,4.21
2019-02-28T02:20:40.665Z,4.14
2019-02-28T02:23:11.121Z,4.11
2019-02-28T02:25:41.468Z,4.10
2019-02-28T02:28:11.871Z,4.08
2019-02-28T02:30:42.369Z,4.04
2019-02-28T02:33:14.400Z,3.95
2019-02-28T02:35:45.052Z,3.93
2019-02-28T02:38:15.535Z,3.90
2019-02-28T02:40:46.100Z,3.90
2019-02-28T02:43:16.539Z,3.90
2019-02-28T02:45:46.841Z,3.87
2019-02-28T02:48:17.249Z,3.86
2019-02-28T02:50:47.768Z,3.79
2019-02-28T02:53:18.317Z,3.72
2019-02-28T02:55:48.841Z,3.73
2019-02-28T02:58:19.111Z,3.70
2019-02-28T03:00:51.350Z,3.66
2019-02-28T03:03:21.754Z,3.66
2019-02-28T03:05:52.222Z,3.71
2019-02-28T03:08:22.707Z,3.66
2019-02-28T03:10:53.307Z,3.67
2019-02-28T03:13:23.688Z,3.67
2019-02-28T03:15:54.104Z,3.69
2019-02-28T03:18:24.432Z,3.73
2019-02-28T03:20:54.945Z,3.66
2019-02-28T03:23:25.316Z,3.65
2019-02-28T03:26:14.666Z,3.58
2019-02-28T03:28:45.052Z,3.60
2019-02-28T03:31:16.028Z,3.58
2019-02-28T03:33:46.989Z,3.58
2019-02-28T03:36:17.562Z,3.64
2019-02-28T03:38:49.666Z,3.69
2019-02-28T03:41:19.952Z,3.70
2019-02-28T03:43:50.250Z,3.60
2019-02-28T03:46:20.667Z,3.52
2019-02-28T03:48:51.131Z,3.54
2019-02-28T03:51:21.417Z,3.53
2019-02-28T03:53:55.539Z,3.52
2019-02-28T03:56:24.149Z,3.52
2019-02-28T03:58:54.795Z,3.54
2019-02-28T04:01:25.176Z,3.52
2019-02-28T04:03:55.631Z,3.55
2019-02-28T04:06:26.067Z,3.57
2019-02-28T04:08:56.596Z,3.63
2019-02-28T04:11:30.773Z,3.63
2019-02-28T04:13:59.489Z,3.58
2019-02-28T04:16:29.975Z,3.60
2019-02-28T04:19:00.923Z,3.54
2019-02-28T04:21:31.514Z,3.55
2019-02-28T04:24:01.841Z,3.58
2019-02-28T04:26:32.371Z,3.63
2019-02-28T04:29:02.732Z,3.66
2019-02-28T04:31:33.518Z,3.71
2019-02-28T04:34:04.053Z,3.68
2019-02-28T04:36:35.835Z,3.67
2019-02-28T04:39:09.190Z,3.70
2019-02-28T04:41:39.687Z,3.70
2019-02-28T04:44:10.083Z,3.70
2019-02-28T04:46:40.556Z,3.72
2019-02-28T04:49:11.037Z,3.74
2019-02-28T04:51:41.390Z,3.70
2019-02-28T04:54:11.732Z,3.66
2019-02-28T04:56:42.380Z,3.63
2019-02-28T04:59:14.144Z,3.58
2019-02-28T05:01:46.177Z,3.53
2019-02-28T05:04:16.923Z,3.48
2019-02-28T05:06:47.342Z,3.45
2019-02-28T05:09:17.692Z,3.40
2019-02-28T05:11:48.052Z,3.45
2019-02-28T05:14:23.487Z,3.46
2019-02-28T05:16:50.616Z,3.49
2019-02-28T05:19:21.066Z,3.45
2019-02-28T05:21:53.552Z,3.37
2019-02-28T05:24:23.596Z,3.37
2019-02-28T05:26:53.993Z,3.39
2019-02-28T05:29:24.381Z,3.36
2019-02-28T05:31:54.821Z,3.34
2019-02-28T05:34:25.287Z,3.30
2019-02-28T05:36:55.750Z,3.28
2019-02-28T05:39:28.191Z,3.29
2019-02-28T05:41:58.077Z,3.23
2019-02-28T05:44:30.326Z,3.22
2019-02-28T05:47:00.732Z,3.23
2019-02-28T05:49:31.157Z,3.26
2019-02-28T05:52:01.637Z,3.23
2019-02-28T05:54:32.003Z,3.27
2019-02-28T05:57:04.634Z,3.28
2019-02-28T05:59:34.531Z,3.30
2019-02-28T06:02:05.147Z,3.32
2019-02-28T06:04:37.883Z,3.34
2019-02-28T06:07:09.431Z,3.38
2019-02-28T06:09:39.963Z,3.42
2019-02-28T06:12:10.457Z,3.43
2019-02-28T06:14:40.865Z,3.47
2019-02-28T06:17:11.269Z,3.51
2019-02-28T06:19:43.635Z,3.53
2019-02-28T06:22:13.902Z,3.56
2019-02-28T06:24:45.096Z,3.62
2019-02-28T06:27:16.254Z,3.67
2019-02-28T06:29:47.879Z,3.75
2019-02-28T06:32:23.281Z,3.81
2019-02-28T06:34:50.399Z,3.87
2019-02-28T06:37:20.848Z,3.91
2019-02-28T06:39:51.251Z,3.94
2019-02-28T06:42:21.574Z,4.01
2019-02-28T06:44:51.944Z,4.11
2019-02-28T06:47:22.342Z,4.16
2019-02-28T06:49:52.910Z,4.21
2019-02-28T06:52:25.206Z,4.26
2019-02-28T06:54:55.441Z,4.34
2019-02-28T06:57:26.847Z,4.45
2019-02-28T06:59:58.042Z,4.55
2019-02-28T07:02:31.388Z,4.63
2019-02-28T07:05:00.610Z,4.69
2019-02-28T07:07:31.039Z,4.78
2019-02-28T07:10:01.490Z,4.92
2019-02-28T07:12:33.146Z,5.04
2019-02-28T07:15:03.613Z,5.20
2019-02-28T07:17:34.139Z,5.33
2019-02-28T07:20:05.032Z,5.46
2019-02-28T07:22:35.517Z,5.63
2019-02-28T07:25:09.464Z,6.26
2019-02-28T07:27:38.562Z,7.17
2019-02-28T07:30:17.511Z,7.46
2019-02-28T07:32:45.068Z,7.53
2019-02-28T07:35:15.569Z,7.49
2019-02-28T07:37:46.084Z,7.48
2019-02-28T07:40:17.333Z,7.51
2019-02-28T07:42:48.214Z,7.69
2019-02-28T07:45:18.735Z,8.05
2019-02-28T07:47:52.623Z,8.54
2019-02-28T07:50:21.386Z,8.97
2019-02-28T07:52:53.202Z,9.45
2019-02-28T07:55:27.284Z,9.84
2019-02-28T07:57:56.625Z,10.45
2019-02-28T08:00:27.270Z,12.37
2019-02-28T08:02:57.719Z,15.07
2019-02-28T08:05:30.988Z,17.31
2019-02-28T08:08:00.246Z,18.35
2019-02-28T08:10:30.751Z,19.07
2019-02-28T08:13:03.061Z,20.40
2019-02-28T08:15:33.508Z,22.20
2019-02-28T08:18:05.761Z,23.49
2019-02-28T08:20:36.132Z,25.39
2019-02-28T08:23:06.574Z,27.35
2019-02-28T08:25:39.686Z,28.62
2019-02-28T08:28:09.214Z,28.56
2019-02-28T08:30:39.734Z,28.85
2019-02-28T08:33:10.212Z,28.88
2019-02-28T08:35:41.742Z,29.24
2019-02-28T08:38:12.169Z,29.80
2019-02-28T08:40:42.563Z,30.00
2019-02-28T08:43:13.473Z,28.95
2019-02-28T08:45:44.529Z,29.44
2019-02-28T08:48:14.979Z,29.38
2019-02-28T08:50:45.721Z,29.08
2019-02-28T08:53:16.798Z,29.58
2019-02-28T08:55:47.250Z,30.28
2019-02-28T08:58:17.736Z,29.83
2019-02-28T09:00:48.167Z,30.25
2019-02-28T09:03:18.583Z,30.09
2019-02-28T09:05:49.010Z,30.39
2019-02-28T09:08:22.483Z,30.45
2019-02-28T09:10:51.629Z,30.30
2019-02-28T09:13:22.099Z,29.54
2019-02-28T09:15:52.446Z,28.80
2019-02-28T09:18:22.951Z,28.60
2019-02-28T09:20:53.328Z,28.49
2019-02-28T09:23:23.839Z,28.97
2019-02-28T09:25:56.594Z,29.72
2019-02-28T09:28:26.239Z,29.40
2019-02-28T09:30:57.049Z,29.49
2019-02-28T09:33:27.541Z,29.96
2019-02-28T09:35:58.005Z,30.51
2019-02-28T09:38:45.259Z,30.63
2019-02-28T09:41:15.352Z,30.94
2019-02-28T09:43:45.849Z,30.11
2019-02-28T09:46:16.437Z,29.82
2019-02-28T09:48:46.909Z,28.57
2019-02-28T09:51:17.388Z,27.98
2019-02-28T09:53:50.278Z,28.51
2019-02-28T09:56:20.544Z,28.94
2019-02-28T09:58:51.043Z,28.71
2019-02-28T10:01:24.506Z,28.38
2019-02-28T10:03:55.344Z,28.63
2019-02-28T10:06:26.084Z,28.52
2019-02-28T10:08:56.516Z,28.19
2019-02-28T10:11:31.393Z,28.27
2019-02-28T10:13:59.223Z,27.99
2019-02-28T10:16:29.651Z,28.08
2019-02-28T10:19:00.073Z,28.26
2019-02-28T10:21:33.329Z,27.38
2019-02-28T10:24:02.452Z,26.89
2019-02-28T10:26:32.876Z,26.02
2019-02-28T10:29:04.496Z,25.47
2019-02-28T10:31:38.339Z,25.08
2019-02-28T10:34:07.713Z,25.69
2019-02-28T10:36:38.171Z,26.38
2019-02-28T10:39:09.753Z,26.56
2019-02-28T10:41:40.308Z,26.62
2019-02-28T10:44:10.645Z,26.40
2019-02-28T10:46:41.088Z,25.77
2019-02-28T10:49:11.518Z,25.69
2019-02-28T10:51:44.652Z,25.28
2019-02-28T10:54:14.555Z,24.57
2019-02-28T10:56:46.298Z,23.80
2019-02-28T10:59:16.721Z,22.77
2019-02-28T11:01:47.357Z,22.01
2019-02-28T11:04:17.777Z,21.25
2019-02-28T11:06:48.246Z,20.67
2019-02-28T11:09:25.117Z,19.95
2019-02-28T11:11:53.585Z,19.47
2019-02-28T11:14:24.099Z,19.15
2019-02-28T11:16:59.098Z,18.87
2019-02-28T11:19:26.899Z,18.86
2019-02-28T11:21:57.320Z,18.85
2019-02-28T11:24:27.847Z,18.67
2019-02-28T11:26:58.376Z,18.54
2019-02-28T11:29:28.768Z,18.55
2019-02-28T11:31:59.432Z,18.46
2019-02-28T11:34:29.870Z,18.33
2019-02-28T11:37:00.180Z,18.34
2019-02-28T11:39:33.650Z,18.34
2019-02-28T11:42:02.876Z,18.31
2019-02-28T11:44:36.542Z,18.39
2019-02-28T11:47:08.329Z,18.56
2019-02-28T11:49:39.310Z,18.53
2019-02-28T11:52:11.092Z,18.59
2019-02-28T11:54:45.227Z,18.69
2019-02-28T11:57:14.286Z,18.80
2019-02-28T11:59:44.793Z,19.17
2019-02-28T12:02:15.391Z,19.59
2019-02-28T12:04:45.892Z,19.96
2019-02-28T12:07:16.407Z,20.34
2019-02-28T12:09:48.122Z,21.04
2019-02-28T12:12:20.032Z,21.69
2019-02-28T12:14:53.234Z,22.29
2019-02-28T12:17:28.602Z,22.78
2019-02-28T12:19:58.870Z,22.86
2019-02-28T12:22:29.607Z,22.77
2019-02-28T12:25:07.648Z,22.45
2019-02-28T12:27:37.214Z,22.36
2019-02-28T12:30:18.643Z,22.47
2019-02-28T12:32:47.032Z,22.68
2019-02-28T12:35:17.632Z,23.10
2019-02-28T12:37:48.386Z,23.10
2019-02-28T12:40:22.518Z,22.97
2019-02-28T12:42:53.045Z,22.85
2019-02-28T12:45:30.467Z,22.70
2019-02-28T12:48:00.961Z,22.94
2019-02-28T12:50:31.674Z,23.24
2019-02-28T12:53:02.020Z,23.19
2019-02-28T12:55:35.482Z,22.99
2019-02-28T12:58:04.737Z,22.81
2019-02-28T13:00:40.295Z,22.33
2019-02-28T13:03:11.110Z,22.26
2019-02-28T13:05:41.737Z,22.18
2019-02-28T13:08:12.162Z,22.27
2019-02-28T13:10:42.679Z,22.31
2019-02-28T13:13:13.153Z,22.40
2019-02-28T13:15:45.395Z,22.49
2019-02-28T13:18:18.154Z,22.29
2019-02-28T13:20:48.940Z,22.11
2019-02-28T13:23:22.173Z,21.98
2019-02-28T13:25:59.201Z,22.22
2019-02-28T13:28:33.722Z,22.14
2019-02-28T13:31:04.750Z,22.29
2019-02-28T13:33:35.840Z,22.09
2019-02-28T13:36:09.408Z,21.95
2019-02-28T13:38:39.900Z,21.74
2019-02-28T13:41:10.420Z,21.40
2019-02-28T13:43:41.036Z,20.97
2019-02-28T13:46:13.051Z,20.65
2019-02-28T13:48:45.564Z,20.41
2019-02-28T13:51:16.356Z,20.07
2019-02-28T13:53:47.344Z,19.62
2019-02-28T13:56:20.674Z,19.38
2019-02-28T13:58:53.746Z,19.20
2019-02-28T14:01:23.315Z,19.02
2019-02-28T14:03:54.033Z,18.86
2019-02-28T14:06:25.025Z,18.77
2019-02-28T14:08:56.263Z,18.61
2019-02-28T14:11:27.555Z,18.44
2019-02-28T14:13:59.133Z,18.32
2019-02-28T14:16:29.608Z,18.38
2019-02-28T14:19:00.082Z,18.28
2019-02-28T14:21:30.529Z,18.16
2019-02-28T14:24:01.081Z,18.11
2019-02-28T14:26:32.629Z,18.01
2019-02-28T14:29:03.136Z,17.90
2019-02-28T14:31:33.872Z,17.84
2019-02-28T14:34:04.332Z,17.84
2019-02-28T14:36:34.739Z,17.87
2019-02-28T14:39:09.305Z,17.90
2019-02-28T14:41:39.942Z,17.92
2019-02-28T14:44:10.415Z,17.96
2019-02-28T14:46:40.790Z,17.95
2019-02-28T14:49:12.468Z,17.90
2019-02-28T14:51:43.402Z,17.77
2019-02-28T14:54:13.757Z,17.77
2019-02-28T14:56:44.221Z,17.74
2019-02-28T14:59:14.643Z,17.69
2019-02-28T15:01:45.169Z,17.65
2019-02-28T15:04:15.580Z,17.59
2019-02-28T15:06:47.344Z,17.54
2019-02-28T15:09:19.156Z,17.52
2019-02-28T15:11:49.676Z,17.61
2019-02-28T15:14:20.079Z,17.68
2019-02-28T15:16:50.441Z,17.59
2019-02-28T15:19:21.374Z,17.55
2019-02-28T15:21:53.136Z,17.51
2019-02-28T15:24:23.657Z,17.50
2019-02-28T15:26:54.183Z,17.49
2019-02-28T15:29:26.833Z,17.50
2019-02-28T15:31:56.807Z,17.53
2019-02-28T15:34:28.876Z,17.48
2019-02-28T15:37:00.284Z,17.39
2019-02-28T15:39:30.826Z,17.28
2019-02-28T15:42:01.167Z,17.21
2019-02-28T15:44:31.544Z,17.14
2019-02-28T15:47:01.964Z,17.02
2019-02-28T15:49:34.350Z,16.92
2019-02-28T15:52:05.258Z,16.83
2019-02-28T15:54:36.820Z,16.76
2019-02-28T15:57:07.348Z,16.71
2019-02-28T15:59:37.844Z,16.63
2019-02-28T16:02:08.298Z,16.51
2019-02-28T16:04:38.706Z,16.41
2019-02-28T16:07:09.098Z,16.34
2019-02-28T16:09:39.550Z,16.31
2019-02-28T16:12:12.508Z,16.30
2019-02-28T16:14:42.544Z,16.29
2019-02-28T16:17:13.115Z,16.26
2019-02-28T16:19:43.468Z,16.23
2019-02-28T16:22:14.621Z,16.16
2019-02-28T16:24:46.042Z,16.11
2019-02-28T16:27:16.537Z,16.02
2019-02-28T16:29:46.887Z,15.94
2019-02-28T16:32:17.282Z,15.83
2019-02-28T16:34:47.596Z,15.75
2019-02-28T16:37:18.039Z,15.67
2019-02-28T16:39:49.112Z,15.61
2019-02-28T16:42:21.572Z,15.53
2019-02-28T16:44:52.241Z,15.45
2019-02-28T16:47:24.365Z,15.39
2019-02-28T16:49:54.891Z,15.35
2019-02-28T16:52:25.240Z,15.35
2019-02-28T16:54:56.330Z,15.32
2019-02-28T16:57:27.360Z,15.29
2019-02-28T16:59:57.884Z,15.22
2019-02-28T17:02:29.290Z,15.12
2019-02-28T17:05:00.561Z,15.02
2019-02-28T17:07:36.484Z,14.96
2019-02-28T17:10:10.898Z,14.91
2019-02-28T17:13:04.132Z,14.88
2019-02-28T17:15:55.867Z,14.88
2019-02-28T17:18:26.014Z,14.85
2019-02-28T17:20:56.580Z,14.80
2019-02-28T17:23:26.875Z,14.71
2019-02-28T17:25:57.663Z,14.65
2019-02-28T17:29:05.486Z,14.56
2019-02-28T17:31:47.735Z,14.49
2019-02-28T17:34:23.995Z,14.38
2019-02-28T17:36:52.081Z,14.27
2019-02-28T17:39:22.482Z,14.17
2019-02-28T17:41:53.015Z,14.11
2019-02-28T17:44:59.532Z,14.02
2019-02-28T17:47:58.867Z,13.90
2019-02-28T17:51:10.621Z,13.79
2019-02-28T17:54:17.319Z,13.67
2019-02-28T17:57:52.380Z,13.54
2019-02-28T18:01:25.393Z,13.41
2019-02-28T18:05:03.766Z,13.27
2019-02-28T18:08:42.979Z,13.23
2019-02-28T18:12:23.444Z,13.18
2019-02-28T18:15:46.950Z,13.10
2019-02-28T18:19:36.813Z,13.06
2019-02-28T18:22:26.487Z,13.01
2019-02-28T18:25:41.887Z,12.90
2019-02-28T18:29:09.905Z,12.87
2019-02-28T18:31:41.925Z,12.85
2019-02-28T18:34:24.370Z,12.85
2019-02-28T18:36:54.773Z,12.81
2019-02-28T18:39:25.463Z,12.74
2019-02-28T18:41:56.086Z,12.66
2019-02-28T18:44:27.822Z,12.59
2019-02-28T18:46:58.348Z,12.52
2019-02-28T18:49:29.399Z,12.45
2019-02-28T18:52:00.548Z,12.37
2019-02-28T18:54:31.027Z,12.28
2019-02-28T18:57:01.441Z,12.17
2019-02-28T18:59:32.995Z,12.12
2019-02-28T19:02:03.534Z,12.02
2019-02-28T19:04:36.557Z,11.96
2019-02-28T19:07:10.834Z,11.90
2019-02-28T19:09:41.321Z,11.85
2019-02-28T19:12:13.836Z,11.81
2019-02-28T19:14:45.901Z,11.78
2019-02-28T19:17:17.016Z,11.77
2019-02-28T19:19:49.076Z,11.76
2019-02-28T19:22:19.680Z,11.74
2019-02-28T19:24:50.132Z,11.73
2019-02-28T19:27:20.660Z,11.68
2019-02-28T19:29:51.086Z,11.62
2019-02-28T19:32:21.584Z,11.64
2019-02-28T19:34:51.977Z,11.75
2019-02-28T19:37:22.422Z,11.79
2019-02-28T19:39:54.498Z,11.81
2019-02-28T19:42:25.802Z,11.84
2019-02-28T19:44:59.598Z,11.82
2019-02-28T19:47:29.943Z,11.78
2019-02-28T19:50:00.443Z,11.72
2019-02-28T19:52:30.982Z,11.77
2019-02-28T19:55:01.417Z,11.85
2019-02-28T19:57:32.142Z,11.93
2019-02-28T20:00:02.621Z,12.00
2019-02-28T20:02:34.310Z,12.04
2019-02-28T20:05:07.748Z,12.08
2019-02-28T20:07:41.064Z,12.14
2019-02-28T20:10:17.297Z,12.17
2019-02-28T20:12:49.089Z,12.15
2019-02-28T20:15:21.378Z,12.02
2019-02-28T20:17:51.759Z,11.93
2019-02-28T20:20:23.396Z,11.90
2019-02-28T20:22:56.556Z,11.89
2019-02-28T20:25:30.107Z,11.86
2019-02-28T20:28:00.569Z,11.86
2019-02-28T20:30:32.860Z,11.84
2019-02-28T20:33:03.323Z,11.78
2019-02-28T20:35:33.889Z,11.73
2019-02-28T20:38:04.404Z,11.65
2019-02-28T20:40:34.856Z,11.67
2019-02-28T20:43:05.663Z,11.62
2019-02-28T20:45:36.003Z,11.57
2019-02-28T20:48:06.453Z,11.63
2019-02-28T20:50:40.840Z,11.65
2019-02-28T20:53:11.262Z,11.57
2019-02-28T20:55:41.636Z,11.55
2019-02-28T20:58:11.936Z,11.58
2019-02-28T21:00:42.323Z,11.49
2019-02-28T21:03:12.868Z,11.44
2019-02-28T21:05:43.317Z,11.43
2019-02-28T21:08:13.701Z,11.41
2019-02-28T21:10:44.197Z,11.39
2019-02-28T21:13:14.589Z,11.37
2019-02-28T21:15:45.080Z,11.30
2019-02-28T21:18:15.587Z,11.24
2019-02-28T21:20:46.007Z,11.23
2019-02-28T21:23:16.464Z,11.24
2019-02-28T21:25:46.812Z,11.23
2019-02-28T21:28:17.437Z,11.16
2019-02-28T21:30:47.826Z,11.46
2019-02-28T21:33:18.304Z,11.58
2019-02-28T21:35:48.853Z,11.63
2019-02-28T21:38:19.307Z,11.46
2019-02-28T21:40:49.723Z,11.20
2019-02-28T21:43:20.188Z,11.06
2019-02-28T21:45:50.670Z,10.96
2019-02-28T21:48:21.075Z,10.89
2019-02-28T21:50:51.416Z,10.85
2019-02-28T21:53:21.839Z,10.78
2019-02-28T21:55:52.251Z,10.74
2019-02-28T21:58:22.665Z,10.72
2019-02-28T22:00:53.143Z,10.74
2019-02-28T22:03:23.530Z,10.69
2019-02-28T22:05:53.878Z,10.71
2019-02-28T22:08:24.240Z,10.71
2019-02-28T22:10:54.678Z,10.70
2019-02-28T22:13:24.994Z,10.73
2019-02-28T22:15:55.398Z,10.69
2019-02-28T22:18:25.748Z,10.65
2019-02-28T22:20:56.211Z,10.68
2019-02-28T22:23:28.262Z,10.70
2019-02-28T22:25:58.648Z,10.70
2019-02-28T22:28:29.141Z,10.74
2019-02-28T22:31:27.141Z,10.69
2019-02-28T22:34:12.423Z,10.71
2019-02-28T22:36:44.838Z,10.70
2019-02-28T22:39:15.246Z,10.68
2019-02-28T22:41:45.542Z,10.66
2019-02-28T22:44:15.819Z,10.61
2019-02-28T22:46:46.299Z,10.57
2019-02-28T22:49:16.719Z,10.60
2019-02-28T22:51:47.045Z,10.60
2019-02-28T22:54:17.495Z,10.66
2019-02-28T22:56:47.970Z,10.71
2019-02-28T22:59:18.358Z,10.75
2019-02-28T23:01:49.059Z,10.81
2019-02-28T23:04:19.431Z,10.76
2019-02-28T23:06:49.771Z,10.75
2019-02-28T23:09:20.325Z,10.69
2019-02-28T23:11:50.779Z,10.70
2019-02-28T23:14:21.185Z,10.73
2019-02-28T23:16:51.534Z,10.69
2019-02-28T23:19:21.951Z,10.69
2019-02-28T23:21:52.219Z,10.69
2019-02-28T23:24:22.623Z,10.74
2019-02-28T23:27:12.773Z,10.68
2019-02-28T23:30:32.676Z,10.65
2019-02-28T23:33:07.942Z,10.51
2019-02-28T23:35:44.871Z,10.47
2019-02-28T23:38:15.435Z,10.52
2019-02-28T23:40:46.073Z,10.47
2019-02-28T23:43:16.603Z,10.48
2019-02-28T23:45:47.500Z,10.47
2019-02-28T23:48:18.131Z,10.48
2019-02-28T23:50:48.463Z,10.44
2019-02-28T23:53:18.964Z,10.43
2019-02-28T23:55:49.447Z,10.44
2019-02-28T23:58:19.956Z,10.44
